Time;durP1;ratioP1;P1;durP2;ratioP2;P2;SDS_P1;SDS_P2;PMS_P1;PMS_P2;Temp;Humidity;BMP_temperature;BMP_pressure;BME280_temperature;BME280_humidity;BME280_pressure;Samples;Min_cycle;Max_cycle;Signal;HPM_P1;HPM_P2
2021/10/11 00:00:24;;;;;;;;;;;;;;;;;;2114394;28;1310;-86
2021/10/11 00:01:26;;;;;;;;;;;;;;;;;;2099741;28;1239;-85
2021/10/11 00:02:27;;;;;;;;;;;;;;;;;;2106882;28;1294;-85
2021/10/11 00:03:29;;;;;;;;;;;;;;;;;;2107913;28;1241;-85
2021/10/11 00:04:29;;;;;;;;;;;;;;;;;;2098800;28;1271;-85
2021/10/11 00:05:31;;;;;;;;;;;;;;;;;;2099245;28;1281;-85
2021/10/11 00:06:33;;;;;;;;;;;;;;;;;;2099572;28;1424;-85
2021/10/11 00:07:36;;;;;;;;;;;;;;;;;;2104611;28;1909;-85
2021/10/11 00:08:37;;;;;;;;;;;;;;;;;;2107431;28;1452;-85
2021/10/11 00:09:40;;;;;;;;;;;;;;;;;;2099426;28;1228;-85
2021/10/11 00:10:41;;;;;;;;;;;;;;;;;;2099439;28;1200;-85
2021/10/11 00:11:43;;;;;;;;;;;;;;;;;;2098973;28;1227;-85
2021/10/11 00:12:44;;;;;;;;;;;;;;;;;;2102566;28;1348;-85
2021/10/11 00:13:46;;;;;;;;;;;;;;;;;;2107761;28;1289;-85
2021/10/11 00:14:46;;;;;;;;;;;;;;;;;;2116092;28;1224;-85
2021/10/11 00:15:48;;;;;;;;;;;;;;;;;;2111729;28;1376;-85
2021/10/11 00:16:49;;;;;;;;;;;;;;;;;;2107563;28;1178;-85
2021/10/11 00:17:51;;;;;;;;;;;;;;;;;;2107392;28;1285;-85
2021/10/11 00:18:52;;;;;;;;;;;;;;;;;;2116019;28;1360;-85
2021/10/11 00:19:54;;;;;;;;;;;;;;;;;;2109140;28;1214;-85
2021/10/11 00:20:55;;;;;;;;;;;;;;;;;;2108990;28;1202;-85
2021/10/11 00:21:57;;;;;;;;;;;;;;;;;;2108679;28;2113;-86
2021/10/11 00:22:57;;;;;;;;;;;;;;;;;;2100973;28;1226;-85
2021/10/11 00:23:59;;;;;;;;;;;;;;;;;;2108647;28;1261;-85
2021/10/11 00:25:01;;;;;;;;;;;;;;;;;;2116917;28;1183;-84
2021/10/11 00:26:03;;;;;;;;;;;;;;;;;;2092737;28;1298;-83
2021/10/11 00:27:04;;;;;;;;;;;;;;;;;;2092298;28;1922;-83
2021/10/11 00:28:06;;;;;;;;;;;;;;;;;;2100268;28;1372;-83
2021/10/11 00:29:07;;;;;;;;;;;;;;;;;;2099717;28;1311;-84
2021/10/11 00:30:10;;;;;;;;;;;;;;;;;;2105517;28;1537;-83
2021/10/11 00:31:11;;;;;;;;;;;;;;;;;;2109072;28;1356;-83
2021/10/11 00:32:14;;;;;;;;;;;;;;;;;;2109137;28;1336;-84
2021/10/11 00:33:15;;;;;;;;;;;;;;;;;;2100443;28;1443;-83
2021/10/11 00:34:16;;;;;;;;;;;;;;;;;;2108662;28;1351;-84
2021/10/11 00:35:17;;;;;;;;;;;;;;;;;;2108636;28;2114;-84
2021/10/11 00:36:19;;;;;;;;;;;;;;;;;;2100004;28;1654;-84
2021/10/11 00:37:20;;;;;;;;;;;;;;;;;;2100708;28;1207;-83
2021/10/11 00:38:21;;;;;;;;;;;;;;;;;;2100144;28;1251;-83
2021/10/11 00:39:22;;;;;;;;;;;;;;;;;;2109021;28;1341;-83
2021/10/11 00:40:26;;;;;;;;;;;;;;;;;;2108244;28;1380;-84
2021/10/11 00:41:28;;;;;;;;;;;;;;;;;;2109129;28;808;-84
2021/10/11 00:42:29;;;;;;;;;;;;;;;;;;2108580;28;1210;-84
2021/10/11 00:43:30;;;;;;;;;;;;;;;;;;2104404;28;1435;-83
2021/10/11 00:44:32;;;;;;;;;;;;;;;;;;2108835;28;1230;-84
2021/10/11 00:45:33;;;;;;;;;;;;;;;;;;2100700;28;1324;-84
2021/10/11 00:46:35;;;;;;;;;;;;;;;;;;2100368;28;1344;-84
2021/10/11 00:47:35;;;;;;;;;;;;;;;;;;2117013;28;1975;-85
2021/10/11 00:48:38;;;;;;;;;;;;;;;;;;2116800;28;1306;-84
2021/10/11 00:49:39;;;;;;;;;;;;;;;;;;2108474;28;1218;-84
2021/10/11 00:50:41;;;;;;;;;;;;;;;;;;2108262;28;1306;-84
2021/10/11 00:51:42;;;;;;;;;;;;;;;;;;2109105;28;1226;-84
2021/10/11 00:52:44;;;;;;;;;;;;;;;;;;2108406;28;1396;-84
2021/10/11 00:53:45;;;;;;;;;;;;;;;;;;2109141;28;1096;-84
2021/10/11 00:54:47;;;;;;;;;;;;;;;;;;2108150;28;1283;-84
2021/10/11 00:55:49;;;;;;;;;;;;;;;;;;2108872;28;1222;-83
2021/10/11 00:56:51;;;;;;;;;;;;;;;;;;2108755;28;1238;-84
2021/10/11 00:57:53;;;;;;;;;;;;;;;;;;2117214;28;1186;-84
2021/10/11 00:58:55;;;;;;;;;;;;;;;;;;2108721;28;1321;-84
2021/10/11 00:59:56;;;;;;;;;;;;;;;;;;2108924;28;1300;-84
2021/10/11 01:00:58;;;;;;;;;;;;;;;;;;2108257;28;1297;-85
2021/10/11 01:01:59;;;;;;;;;;;;;;;;;;2115776;28;1363;-85
2021/10/11 01:03:01;;;;;;;;;;;;;;;;;;2108512;28;883;-85
2021/10/11 01:04:05;;;;;;;;;;;;;;;;;;2108783;28;1514;-85
2021/10/11 01:05:08;;;;;;;;;;;;;;;;;;2100747;28;1350;-85
2021/10/11 01:06:09;;;;;;;;;;;;;;;;;;2108014;28;1214;-85
2021/10/11 01:07:11;;;;;;;;;;;;;;;;;;2115009;28;1917;-85
2021/10/11 01:08:12;;;;;;;;;;;;;;;;;;2108656;28;1242;-85
2021/10/11 01:09:14;;;;;;;;;;;;;;;;;;2108624;28;1226;-85
2021/10/11 01:10:15;;;;;;;;;;;;;;;;;;2108895;28;1483;-85
2021/10/11 01:11:18;;;;;;;;;;;;;;;;;;2117278;28;1478;-84
2021/10/11 01:12:19;;;;;;;;;;;;;;;;;;2109038;28;1257;-85
2021/10/11 01:13:21;;;;;;;;;;;;;;;;;;2108769;28;1311;-85
2021/10/11 01:14:22;;;;;;;;;;;;;;;;;;2108321;28;1493;-85
2021/10/11 01:15:24;;;;;;;;;;;;;;;;;;2108698;28;1182;-85
2021/10/11 01:16:25;;;;;;;;;;;;;;;;;;2108722;28;1202;-84
2021/10/11 01:17:27;;;;;;;;;;;;;;;;;;2100377;28;1382;-85
2021/10/11 01:18:27;;;;;;;;;;;;;;;;;;2108254;28;1345;-85
2021/10/11 01:19:29;;;;;;;;;;;;;;;;;;2108847;28;1254;-85
2021/10/11 01:20:32;;;;;;;;;;;;;;;;;;2100354;28;1255;-85
2021/10/11 01:21:34;;;;;;;;;;;;;;;;;;2099913;28;1288;-84
2021/10/11 01:22:36;;;;;;;;;;;;;;;;;;2116762;28;1323;-85
2021/10/11 01:23:37;;;;;;;;;;;;;;;;;;2117101;28;1392;-84
2021/10/11 01:24:38;;;;;;;;;;;;;;;;;;2108391;28;1277;-85
2021/10/11 01:25:40;;;;;;;;;;;;;;;;;;2105140;28;2108;-84
2021/10/11 01:26:42;;;;;;;;;;;;;;;;;;2099744;28;1237;-84
2021/10/11 01:27:44;;;;;;;;;;;;;;;;;;2091809;28;2040;-84
2021/10/11 01:28:45;;;;;;;;;;;;;;;;;;2091497;28;1172;-83
2021/10/11 01:29:47;;;;;;;;;;;;;;;;;;2100088;28;1241;-84
2021/10/11 01:30:49;;;;;;;;;;;;;;;;;;2104129;28;1193;-85
2021/10/11 01:31:50;;;;;;;;;;;;;;;;;;2108655;28;1193;-85
2021/10/11 01:32:52;;;;;;;;;;;;;;;;;;2099795;28;2011;-86
2021/10/11 01:33:53;;;;;;;;;;;;;;;;;;2100030;28;1248;-84
2021/10/11 01:34:55;;;;;;;;;;;;;;;;;;2099659;28;1282;-85
2021/10/11 01:35:58;;;;;;;;;;;;;;;;;;2100202;28;1254;-85
2021/10/11 01:36:59;;;;;;;;;;;;;;;;;;2108451;28;938;-85
2021/10/11 01:38:01;;;;;;;;;;;;;;;;;;2108665;28;1385;-85
2021/10/11 01:39:03;;;;;;;;;;;;;;;;;;2107853;28;1392;-85
2021/10/11 01:40:06;;;;;;;;;;;;;;;;;;2112209;28;1572;-84
2021/10/11 01:41:07;;;;;;;;;;;;;;;;;;2101593;28;1321;-85
2021/10/11 01:42:09;;;;;;;;;;;;;;;;;;2100042;28;1202;-84
2021/10/11 01:43:11;;;;;;;;;;;;;;;;;;2099452;28;1208;-84
2021/10/11 01:44:12;;;;;;;;;;;;;;;;;;2091991;28;1310;-84
2021/10/11 01:45:14;;;;;;;;;;;;;;;;;;2091652;28;1436;-84
2021/10/11 01:46:15;;;;;;;;;;;;;;;;;;2099746;28;2340;-85
2021/10/11 01:47:17;;;;;;;;;;;;;;;;;;2099747;28;1246;-84
2021/10/11 01:48:18;;;;;;;;;;;;;;;;;;2091312;28;1914;-85
2021/10/11 01:49:19;;;;;;;;;;;;;;;;;;2091990;28;1267;-85
2021/10/11 01:50:20;;;;;;;;;;;;;;;;;;2091309;28;1281;-85
2021/10/11 01:51:24;;;;;;;;;;;;;;;;;;2099990;28;1275;-84
2021/10/11 01:52:24;;;;;;;;;;;;;;;;;;2104100;28;1281;-85
2021/10/11 01:53:26;;;;;;;;;;;;;;;;;;2108596;28;1344;-84
2021/10/11 01:54:27;;;;;;;;;;;;;;;;;;2099564;28;1274;-84
2021/10/11 01:55:29;;;;;;;;;;;;;;;;;;2099523;28;1497;-84
2021/10/11 01:56:30;;;;;;;;;;;;;;;;;;2099951;28;1234;-84
2021/10/11 01:57:31;;;;;;;;;;;;;;;;;;2100019;28;1290;-84
2021/10/11 01:58:33;;;;;;;;;;;;;;;;;;2099833;28;1381;-84
2021/10/11 01:59:34;;;;;;;;;;;;;;;;;;2099536;28;1368;-84
2021/10/11 02:00:36;;;;;;;;;;;;;;;;;;2102556;28;1325;-85
2021/10/11 02:01:36;;;;;;;;;;;;;;;;;;2107804;28;1293;-84
2021/10/11 02:02:38;;;;;;;;;;;;;;;;;;2107972;28;1292;-84
2021/10/11 02:03:39;;;;;;;;;;;;;;;;;;2115959;28;1231;-85
2021/10/11 02:04:41;;;;;;;;;;;;;;;;;;2108190;28;1451;-85
2021/10/11 02:05:42;;;;;;;;;;;;;;;;;;2104037;28;1220;-84
2021/10/11 02:06:45;;;;;;;;;;;;;;;;;;2099527;28;1364;-84
2021/10/11 02:07:46;;;;;;;;;;;;;;;;;;2098434;28;2028;-84
2021/10/11 02:08:48;;;;;;;;;;;;;;;;;;2091702;28;1452;-84
2021/10/11 02:09:48;;;;;;;;;;;;;;;;;;2099371;28;1231;-85
2021/10/11 02:10:50;;;;;;;;;;;;;;;;;;2108265;28;1364;-84
2021/10/11 02:11:51;;;;;;;;;;;;;;;;;;2116080;28;1216;-85
2021/10/11 02:12:53;;;;;;;;;;;;;;;;;;2116361;28;2066;-85
2021/10/11 02:13:54;;;;;;;;;;;;;;;;;;2116718;28;1122;-84
2021/10/11 02:14:56;;;;;;;;;;;;;;;;;;2116571;28;1390;-84
2021/10/11 02:15:56;;;;;;;;;;;;;;;;;;2116457;28;1979;-85
2021/10/11 02:16:58;;;;;;;;;;;;;;;;;;2107989;28;1487;-85
2021/10/11 02:17:59;;;;;;;;;;;;;;;;;;2108604;28;1218;-85
2021/10/11 02:19:01;;;;;;;;;;;;;;;;;;2107743;28;1331;-84
2021/10/11 02:20:03;;;;;;;;;;;;;;;;;;2108160;28;1277;-85
2021/10/11 02:21:04;;;;;;;;;;;;;;;;;;2100905;28;1886;-85
2021/10/11 02:22:07;;;;;;;;;;;;;;;;;;2101119;28;1186;-85
2021/10/11 02:23:09;;;;;;;;;;;;;;;;;;2108020;28;1236;-85
2021/10/11 02:24:09;;;;;;;;;;;;;;;;;;2108556;28;1251;-85
2021/10/11 02:25:11;;;;;;;;;;;;;;;;;;2108010;28;1498;-85
2021/10/11 02:26:12;;;;;;;;;;;;;;;;;;2116079;28;1293;-84
2021/10/11 02:27:14;;;;;;;;;;;;;;;;;;2107806;28;1431;-84
2021/10/11 02:28:15;;;;;;;;;;;;;;;;;;2107482;28;1917;-86
2021/10/11 02:29:17;;;;;;;;;;;;;;;;;;2108052;28;1333;-85
2021/10/11 02:30:17;;;;;;;;;;;;;;;;;;2107569;28;1358;-85
2021/10/11 02:31:20;;;;;;;;;;;;;;;;;;2107963;28;1238;-85
2021/10/11 02:32:21;;;;;;;;;;;;;;;;;;2104590;28;867;-85
2021/10/11 02:33:23;;;;;;;;;;;;;;;;;;2099679;28;1351;-84
2021/10/11 02:34:24;;;;;;;;;;;;;;;;;;2099989;28;1266;-86
2021/10/11 02:35:25;;;;;;;;;;;;;;;;;;2108636;28;1253;-85
2021/10/11 02:36:26;;;;;;;;;;;;;;;;;;2107973;28;1227;-86
2021/10/11 02:37:31;;;;;;;;;;;;;;;;;;2111492;28;1312;-85
2021/10/11 02:38:31;;;;;;;;;;;;;;;;;;2099873;28;1347;-86
2021/10/11 02:39:33;;;;;;;;;;;;;;;;;;2099929;28;1309;-86
2021/10/11 02:40:36;;;;;;;;;;;;;;;;;;2099115;28;1309;-86
2021/10/11 02:41:40;;;;;;;;;;;;;;;;;;2108450;28;1311;-85
2021/10/11 02:42:42;;;;;;;;;;;;;;;;;;2107635;28;1218;-86
2021/10/11 02:43:44;;;;;;;;;;;;;;;;;;2108167;28;1365;-86
2021/10/11 02:44:47;;;;;;;;;;;;;;;;;;2099270;28;1287;-86
2021/10/11 02:45:49;;;;;;;;;;;;;;;;;;2100135;28;1296;-86
2021/10/11 02:46:51;;;;;;;;;;;;;;;;;;2099515;28;1356;-86
2021/10/11 02:47:51;;;;;;;;;;;;;;;;;;2099493;28;1902;-85
2021/10/11 02:48:53;;;;;;;;;;;;;;;;;;2098994;28;1287;-85
2021/10/11 02:49:54;;;;;;;;;;;;;;;;;;2099454;28;1375;-85
2021/10/11 02:50:56;;;;;;;;;;;;;;;;;;2104845;28;1925;-85
2021/10/11 02:51:56;;;;;;;;;;;;;;;;;;2107737;28;1305;-85
2021/10/11 02:53:00;;;;;;;;;;;;;;;;;;2099530;28;1505;-85
2021/10/11 02:54:00;;;;;;;;;;;;;;;;;;2099536;28;1252;-86
2021/10/11 02:55:03;;;;;;;;;;;;;;;;;;2107585;28;1328;-84
2021/10/11 02:56:04;;;;;;;;;;;;;;;;;;2107841;28;1244;-84
2021/10/11 02:57:06;;;;;;;;;;;;;;;;;;2107248;28;1305;-85
2021/10/11 02:58:07;;;;;;;;;;;;;;;;;;2108184;28;1428;-84
2021/10/11 02:59:10;;;;;;;;;;;;;;;;;;2107465;28;1346;-83
2021/10/11 03:00:11;;;;;;;;;;;;;;;;;;2099820;28;1665;-84
2021/10/11 03:01:14;;;;;;;;;;;;;;;;;;2106794;28;2159;-84
2021/10/11 03:02:14;;;;;;;;;;;;;;;;;;2107891;28;1378;-85
2021/10/11 03:03:16;;;;;;;;;;;;;;;;;;2107809;28;1399;-84
2021/10/11 03:04:17;;;;;;;;;;;;;;;;;;2107429;28;1111;-84
2021/10/11 03:05:19;;;;;;;;;;;;;;;;;;2107921;28;1338;-84
2021/10/11 03:06:20;;;;;;;;;;;;;;;;;;2107685;28;1311;-83
2021/10/11 03:07:23;;;;;;;;;;;;;;;;;;2099904;28;2174;-84
2021/10/11 03:08:25;;;;;;;;;;;;;;;;;;2099474;28;1979;-86
2021/10/11 03:09:27;;;;;;;;;;;;;;;;;;2108155;28;1206;-86
2021/10/11 03:10:28;;;;;;;;;;;;;;;;;;2107365;28;1404;-86
2021/10/11 03:11:30;;;;;;;;;;;;;;;;;;2107535;28;1184;-86
2021/10/11 03:12:31;;;;;;;;;;;;;;;;;;2107675;28;1186;-85
2021/10/11 03:13:32;;;;;;;;;;;;;;;;;;2116027;28;1210;-84
2021/10/11 03:14:33;;;;;;;;;;;;;;;;;;2107213;28;1290;-84
2021/10/11 03:15:35;;;;;;;;;;;;;;;;;;2107844;28;1351;-85
2021/10/11 03:16:36;;;;;;;;;;;;;;;;;;2107364;28;1321;-85
2021/10/11 03:17:38;;;;;;;;;;;;;;;;;;2101695;28;2046;-84
2021/10/11 03:18:38;;;;;;;;;;;;;;;;;;2098731;28;1294;-85
2021/10/11 03:19:40;;;;;;;;;;;;;;;;;;2099653;28;1226;-84
2021/10/11 03:20:41;;;;;;;;;;;;;;;;;;2099372;28;1190;-85
2021/10/11 03:21:43;;;;;;;;;;;;;;;;;;2099553;28;1264;-85
2021/10/11 03:22:44;;;;;;;;;;;;;;;;;;2099470;28;1182;-84
2021/10/11 03:23:47;;;;;;;;;;;;;;;;;;2107563;28;1235;-85
2021/10/11 03:24:48;;;;;;;;;;;;;;;;;;2107600;28;1258;-85
2021/10/11 03:25:50;;;;;;;;;;;;;;;;;;2103245;28;2041;-84
2021/10/11 03:26:51;;;;;;;;;;;;;;;;;;2099230;28;1239;-85
2021/10/11 03:27:52;;;;;;;;;;;;;;;;;;2107459;28;1214;-84
2021/10/11 03:28:53;;;;;;;;;;;;;;;;;;2098853;28;1909;-85
2021/10/11 03:29:55;;;;;;;;;;;;;;;;;;2099039;28;1190;-85
2021/10/11 03:30:56;;;;;;;;;;;;;;;;;;2099326;28;1246;-84
2021/10/11 03:31:58;;;;;;;;;;;;;;;;;;2099329;28;1261;-83
2021/10/11 03:32:58;;;;;;;;;;;;;;;;;;2099046;28;1455;-84
2021/10/11 03:34:00;;;;;;;;;;;;;;;;;;2098628;28;1333;-84
2021/10/11 03:35:01;;;;;;;;;;;;;;;;;;2099418;28;1224;-86
2021/10/11 03:36:03;;;;;;;;;;;;;;;;;;2099651;28;1347;-86
2021/10/11 03:37:05;;;;;;;;;;;;;;;;;;2098896;28;1231;-86
2021/10/11 03:38:05;;;;;;;;;;;;;;;;;;2099638;28;1262;-86
2021/10/11 03:39:09;;;;;;;;;;;;;;;;;;2099200;28;1253;-85
2021/10/11 03:40:10;;;;;;;;;;;;;;;;;;2099806;28;1206;-88
2021/10/11 03:41:11;;;;;;;;;;;;;;;;;;2106851;28;1934;-84
2021/10/11 03:42:12;;;;;;;;;;;;;;;;;;2110488;28;1336;-85
2021/10/11 03:43:14;;;;;;;;;;;;;;;;;;2116257;28;1386;-85
2021/10/11 03:44:15;;;;;;;;;;;;;;;;;;2107590;28;1268;-85
2021/10/11 03:45:17;;;;;;;;;;;;;;;;;;2098920;28;1180;-85
2021/10/11 03:46:17;;;;;;;;;;;;;;;;;;2098872;28;1314;-85
2021/10/11 03:47:19;;;;;;;;;;;;;;;;;;2110525;28;1361;-85
2021/10/11 03:48:20;;;;;;;;;;;;;;;;;;2107284;28;1906;-84
2021/10/11 03:49:23;;;;;;;;;;;;;;;;;;2099270;28;1254;-85
2021/10/11 03:50:23;;;;;;;;;;;;;;;;;;2105957;28;2101;-85
2021/10/11 03:51:25;;;;;;;;;;;;;;;;;;2108113;28;1361;-85
2021/10/11 03:52:26;;;;;;;;;;;;;;;;;;2099185;28;1155;-85
2021/10/11 03:53:28;;;;;;;;;;;;;;;;;;2099846;28;1351;-85
2021/10/11 03:54:30;;;;;;;;;;;;;;;;;;2099468;28;1271;-85
2021/10/11 03:55:32;;;;;;;;;;;;;;;;;;2101121;28;1201;-85
2021/10/11 03:56:33;;;;;;;;;;;;;;;;;;2100957;28;1241;-85
2021/10/11 03:57:34;;;;;;;;;;;;;;;;;;2100957;28;1186;-85
2021/10/11 03:58:35;;;;;;;;;;;;;;;;;;2100401;28;1299;-85
2021/10/11 03:59:37;;;;;;;;;;;;;;;;;;2100852;28;1419;-85
2021/10/11 04:00:38;;;;;;;;;;;;;;;;;;2101735;28;1786;-85
2021/10/11 04:01:40;;;;;;;;;;;;;;;;;;2100564;28;1231;-85
2021/10/11 04:02:42;;;;;;;;;;;;;;;;;;2100698;28;1328;-85
2021/10/11 04:03:42;;;;;;;;;;;;;;;;;;2109153;28;1158;-86
2021/10/11 04:04:44;;;;;;;;;;;;;;;;;;2109340;28;1419;-85
2021/10/11 04:05:45;;;;;;;;;;;;;;;;;;2108743;28;1241;-85
2021/10/11 04:06:47;;;;;;;;;;;;;;;;;;2100860;28;1226;-85
2021/10/11 04:07:51;;;;;;;;;;;;;;;;;;2100458;28;1491;-85
2021/10/11 04:08:54;;;;;;;;;;;;;;;;;;2101082;28;2001;-84
2021/10/11 04:10:00;;;;;;;;;;;;;;;;;;2100443;28;1320;-84
2021/10/11 04:11:05;;;;;;;;;;;;;;;;;;2107340;28;1237;-83
2021/10/11 04:12:08;;;;;;;;;;;;;;;;;;2109693;28;2014;-82
2021/10/11 04:13:10;;;;;;;;;;;;;;;;;;2117341;28;862;-82
2021/10/11 04:14:11;;;;;;;;;;;;;;;;;;2113887;28;1573;-82
2021/10/11 04:15:12;;;;;;;;;;;;;;;;;;2100075;28;1684;-82
2021/10/11 04:16:15;;;;;;;;;;;;;;;;;;2108210;28;2020;-81
2021/10/11 04:17:16;;;;;;;;;;;;;;;;;;2100278;28;1482;-81
2021/10/11 04:18:18;;;;;;;;;;;;;;;;;;2108655;28;1225;-82
2021/10/11 04:19:19;;;;;;;;;;;;;;;;;;2092656;28;1334;-82
2021/10/11 04:20:21;;;;;;;;;;;;;;;;;;2090327;28;2006;-82
2021/10/11 04:21:22;;;;;;;;;;;;;;;;;;2095899;28;1297;-82
2021/10/11 04:22:23;;;;;;;;;;;;;;;;;;2107571;28;1561;-81
2021/10/11 04:23:24;;;;;;;;;;;;;;;;;;2110180;28;1715;-80
2021/10/11 04:24:26;;;;;;;;;;;;;;;;;;2118013;27;1304;-80
2021/10/11 04:25:29;;;;;;;;;;;;;;;;;;2108587;28;1563;-81
2021/10/11 04:26:30;;;;;;;;;;;;;;;;;;2100512;28;1395;-81
2021/10/11 04:27:31;;;;;;;;;;;;;;;;;;2105846;28;1124;-81
2021/10/11 04:28:33;;;;;;;;;;;;;;;;;;2102069;28;1901;-82
2021/10/11 04:29:34;;;;;;;;;;;;;;;;;;2100224;28;1215;-82
2021/10/11 04:30:38;;;;;;;;;;;;;;;;;;2100408;28;1217;-83
2021/10/11 04:31:38;;;;;;;;;;;;;;;;;;2100761;28;1309;-83
2021/10/11 04:32:40;;;;;;;;;;;;;;;;;;2100211;28;1763;-82
2021/10/11 04:33:41;;;;;;;;;;;;;;;;;;2108319;28;1525;-83
2021/10/11 04:34:43;;;;;;;;;;;;;;;;;;2105429;28;1584;-84
2021/10/11 04:35:45;;;;;;;;;;;;;;;;;;2112605;28;2090;-84
2021/10/11 04:36:47;;;;;;;;;;;;;;;;;;2105947;28;1357;-84
2021/10/11 04:37:48;;;;;;;;;;;;;;;;;;2107977;28;2129;-85
2021/10/11 04:38:50;;;;;;;;;;;;;;;;;;2108747;28;1289;-85
2021/10/11 04:39:51;;;;;;;;;;;;;;;;;;2104218;28;1321;-86
2021/10/11 04:40:54;;;;;;;;;;;;;;;;;;2102060;28;1336;-88
2021/10/11 04:41:54;;;;;;;;;;;;;;;;;;2108556;28;1349;-86
2021/10/11 04:42:56;;;;;;;;;;;;;;;;;;2106575;28;1328;-85
2021/10/11 04:43:57;;;;;;;;;;;;;;;;;;2108622;28;1363;-86
2021/10/11 04:44:59;;;;;;;;;;;;;;;;;;2106542;28;1514;-87
2021/10/11 04:46:00;;;;;;;;;;;;;;;;;;2106404;28;1811;-87
2021/10/11 04:47:02;;;;;;;;;;;;;;;;;;2117379;28;2032;-88
2021/10/11 04:48:05;;;;;;;;;;;;;;;;;;2108523;28;1317;-88
2021/10/11 04:49:07;;;;;;;;;;;;;;;;;;2100147;28;1902;-87
2021/10/11 04:50:08;;;;;;;;;;;;;;;;;;2110239;28;1337;-87
2021/10/11 04:51:11;;;;;;;;;;;;;;;;;;2109854;28;1849;-87
2021/10/11 04:52:12;;;;;;;;;;;;;;;;;;2108901;28;1292;-87
2021/10/11 04:53:14;;;;;;;;;;;;;;;;;;2108332;28;1203;-87
2021/10/11 04:54:14;;;;;;;;;;;;;;;;;;2108807;28;1332;-87
2021/10/11 04:55:16;;;;;;;;;;;;;;;;;;2100270;28;1372;-88
2021/10/11 04:56:19;;;;;;;;;;;;;;;;;;2092359;28;1244;-87
2021/10/11 04:57:20;;;;;;;;;;;;;;;;;;2100894;28;1292;-86
2021/10/11 04:58:22;;;;;;;;;;;;;;;;;;2103193;28;1415;-85
2021/10/11 04:59:24;;;;;;;;;;;;;;;;;;2108445;28;1219;-86
2021/10/11 05:00:25;;;;;;;;;;;;;;;;;;2108723;28;1283;-86
2021/10/11 05:01:26;;;;;;;;;;;;;;;;;;2108655;28;1353;-86
2021/10/11 05:02:30;;;;;;;;;;;;;;;;;;2107583;28;1434;-85
2021/10/11 05:03:31;;;;;;;;;;;;;;;;;;2108033;28;1281;-86
2021/10/11 05:04:33;;;;;;;;;;;;;;;;;;2111557;28;1417;-85
2021/10/11 05:05:33;;;;;;;;;;;;;;;;;;2099655;28;1925;-86
2021/10/11 05:06:35;;;;;;;;;;;;;;;;;;2113187;28;1396;-86
2021/10/11 05:07:36;;;;;;;;;;;;;;;;;;2106408;28;1356;-86
2021/10/11 05:08:38;;;;;;;;;;;;;;;;;;2097533;28;1250;-87
2021/10/11 05:09:38;;;;;;;;;;;;;;;;;;2105103;28;1548;-86
2021/10/11 05:10:40;;;;;;;;;;;;;;;;;;2108028;28;1289;-86
2021/10/11 05:11:42;;;;;;;;;;;;;;;;;;2100621;28;1208;-86
2021/10/11 05:12:44;;;;;;;;;;;;;;;;;;2111808;28;2017;-86
2021/10/11 05:13:45;;;;;;;;;;;;;;;;;;2100767;28;1426;-86
2021/10/11 05:14:47;;;;;;;;;;;;;;;;;;2108576;28;1380;-86
2021/10/11 05:15:49;;;;;;;;;;;;;;;;;;2108211;28;1352;-86
2021/10/11 05:16:50;;;;;;;;;;;;;;;;;;2107087;28;1357;-86
2021/10/11 05:17:51;;;;;;;;;;;;;;;;;;2107837;28;1922;-86
2021/10/11 05:18:52;;;;;;;;;;;;;;;;;;2103950;28;1402;-87
2021/10/11 05:19:54;;;;;;;;;;;;;;;;;;2100139;28;1412;-84
2021/10/11 05:20:58;;;;;;;;;;;;;;;;;;2107224;28;1656;-84
2021/10/11 05:21:59;;;;;;;;;;;;;;;;;;2107939;28;1791;-84
2021/10/11 05:23:01;;;;;;;;;;;;;;;;;;2108220;28;1258;-84
2021/10/11 05:24:01;;;;;;;;;;;;;;;;;;2108427;28;1314;-84
2021/10/11 05:25:04;;;;;;;;;;;;;;;;;;2107975;28;1407;-84
2021/10/11 05:26:04;;;;;;;;;;;;;;;;;;2106821;28;1918;-84
2021/10/11 05:27:08;;;;;;;;;;;;;;;;;;2103209;28;1755;-84
2021/10/11 05:28:10;;;;;;;;;;;;;;;;;;2109215;28;1434;-83
2021/10/11 05:29:12;;;;;;;;;;;;;;;;;;2108096;28;1913;-84
2021/10/11 05:30:14;;;;;;;;;;;;;;;;;;2111753;28;1319;-83
2021/10/11 05:31:14;;;;;;;;;;;;;;;;;;2113388;28;1813;-82
2021/10/11 05:32:16;;;;;;;;;;;;;;;;;;2099757;28;1369;-84
2021/10/11 05:33:19;;;;;;;;;;;;;;;;;;2099972;28;1371;-83
2021/10/11 05:34:21;;;;;;;;;;;;;;;;;;2106232;28;1474;-84
2021/10/11 05:35:22;;;;;;;;;;;;;;;;;;2115701;28;2055;-83
2021/10/11 05:36:23;;;;;;;;;;;;;;;;;;2116469;28;1309;-85
2021/10/11 05:37:24;;;;;;;;;;;;;;;;;;2105537;28;1384;-83
2021/10/11 05:38:28;;;;;;;;;;;;;;;;;;2101545;28;1371;-82
2021/10/11 05:39:28;;;;;;;;;;;;;;;;;;2102860;28;1534;-83
2021/10/11 05:40:30;;;;;;;;;;;;;;;;;;2115477;28;2058;-82
2021/10/11 05:41:31;;;;;;;;;;;;;;;;;;2105002;28;1317;-83
2021/10/11 05:42:34;;;;;;;;;;;;;;;;;;2107560;28;1251;-83
2021/10/11 05:43:35;;;;;;;;;;;;;;;;;;2108223;28;1641;-85
2021/10/11 05:44:37;;;;;;;;;;;;;;;;;;2099296;28;1281;-83
2021/10/11 05:45:38;;;;;;;;;;;;;;;;;;2110872;28;1290;-84
2021/10/11 05:46:39;;;;;;;;;;;;;;;;;;2116679;28;1399;-84
2021/10/11 05:47:40;;;;;;;;;;;;;;;;;;2107397;28;1816;-84
2021/10/11 05:48:43;;;;;;;;;;;;;;;;;;2108114;28;1405;-84
2021/10/11 05:49:44;;;;;;;;;;;;;;;;;;2115890;28;1976;-84
2021/10/11 05:50:46;;;;;;;;;;;;;;;;;;2112872;28;1339;-83
2021/10/11 05:51:47;;;;;;;;;;;;;;;;;;2101285;28;1561;-84
2021/10/11 05:52:48;;;;;;;;;;;;;;;;;;2099375;28;1311;-83
2021/10/11 05:53:49;;;;;;;;;;;;;;;;;;2100067;28;1301;-82
2021/10/11 05:54:51;;;;;;;;;;;;;;;;;;2107853;28;1359;-83
2021/10/11 05:55:53;;;;;;;;;;;;;;;;;;2104242;28;1839;-84
2021/10/11 05:56:55;;;;;;;;;;;;;;;;;;2104000;28;1721;-85
2021/10/11 05:57:58;;;;;;;;;;;;;;;;;;2091966;28;1456;-84
2021/10/11 05:59:02;;;;;;;;;;;;;;;;;;2091765;28;1353;-83
2021/10/11 06:00:03;;;;;;;;;;;;;;;;;;2100165;28;1308;-84
2021/10/11 06:01:07;;;;;;;;;;;;;;;;;;2099777;28;918;-84
2021/10/11 06:02:08;;;;;;;;;;;;;;;;;;2107681;28;1226;-85
2021/10/11 06:03:10;;;;;;;;;;;;;;;;;;2099660;28;1253;-86
2021/10/11 06:04:11;;;;;;;;;;;;;;;;;;2100087;28;1342;-83
2021/10/11 06:05:13;;;;;;;;;;;;;;;;;;2107304;28;1302;-85
2021/10/11 06:06:13;;;;;;;;;;;;;;;;;;2103027;28;1485;-83
2021/10/11 06:07:15;;;;;;;;;;;;;;;;;;2107498;28;1696;-83
2021/10/11 06:08:18;;;;;;;;;;;;;;;;;;2099730;28;1256;-84
2021/10/11 06:09:19;;;;;;;;;;;;;;;;;;2107671;28;1905;-85
2021/10/11 06:10:21;;;;;;;;;;;;;;;;;;2100124;28;1945;-85
2021/10/11 06:11:22;;;;;;;;;;;;;;;;;;2116085;28;1225;-85
2021/10/11 06:12:23;;;;;;;;;;;;;;;;;;2107335;28;2023;-84
2021/10/11 06:13:27;;;;;;;;;;;;;;;;;;2099288;28;1281;-84
2021/10/11 06:14:27;;;;;;;;;;;;;;;;;;2099527;28;1260;-85
2021/10/11 06:15:29;;;;;;;;;;;;;;;;;;2099884;28;1366;-84
2021/10/11 06:16:30;;;;;;;;;;;;;;;;;;2099466;28;1262;-84
2021/10/11 06:17:32;;;;;;;;;;;;;;;;;;2100127;28;1314;-84
2021/10/11 06:18:33;;;;;;;;;;;;;;;;;;2107502;28;1194;-84
2021/10/11 06:19:34;;;;;;;;;;;;;;;;;;2107314;28;1293;-84
2021/10/11 06:20:36;;;;;;;;;;;;;;;;;;2101690;28;1689;-85
2021/10/11 06:21:37;;;;;;;;;;;;;;;;;;2104001;28;1367;-84
2021/10/11 06:22:39;;;;;;;;;;;;;;;;;;2106732;28;2092;-84
2021/10/11 06:23:39;;;;;;;;;;;;;;;;;;2107858;28;1328;-84
2021/10/11 06:24:41;;;;;;;;;;;;;;;;;;2107475;28;1724;-84
2021/10/11 06:25:43;;;;;;;;;;;;;;;;;;2105167;28;1324;-84
2021/10/11 06:26:45;;;;;;;;;;;;;;;;;;2104557;28;1333;-84
2021/10/11 06:27:46;;;;;;;;;;;;;;;;;;2103959;28;1898;-84
2021/10/11 06:28:49;;;;;;;;;;;;;;;;;;2105044;28;1337;-84
2021/10/11 06:29:51;;;;;;;;;;;;;;;;;;2115872;28;1910;-84
2021/10/11 06:30:52;;;;;;;;;;;;;;;;;;2112287;28;1726;-84
2021/10/11 06:31:54;;;;;;;;;;;;;;;;;;2109217;28;1276;-84
2021/10/11 06:32:57;;;;;;;;;;;;;;;;;;2107135;28;1265;-84
2021/10/11 06:33:58;;;;;;;;;;;;;;;;;;2102593;28;1271;-84
2021/10/11 06:35:00;;;;;;;;;;;;;;;;;;2100567;28;1727;-84
2021/10/11 06:36:02;;;;;;;;;;;;;;;;;;2107965;28;1344;-84
2021/10/11 06:37:04;;;;;;;;;;;;;;;;;;2104389;28;1368;-84
2021/10/11 06:38:06;;;;;;;;;;;;;;;;;;2105391;28;1431;-83
2021/10/11 06:39:06;;;;;;;;;;;;;;;;;;2093777;28;1337;-84
2021/10/11 06:40:09;;;;;;;;;;;;;;;;;;2099223;28;1407;-84
2021/10/11 06:41:10;;;;;;;;;;;;;;;;;;2107013;28;1869;-84
2021/10/11 06:42:12;;;;;;;;;;;;;;;;;;2108621;28;1686;-84
2021/10/11 06:43:12;;;;;;;;;;;;;;;;;;2109993;28;1269;-84
2021/10/11 06:44:17;;;;;;;;;;;;;;;;;;2107694;28;1317;-84
2021/10/11 06:45:17;;;;;;;;;;;;;;;;;;2107349;28;1673;-84
2021/10/11 06:46:19;;;;;;;;;;;;;;;;;;2107122;28;1300;-85
2021/10/11 06:47:20;;;;;;;;;;;;;;;;;;2106616;28;1860;-84
2021/10/11 06:48:22;;;;;;;;;;;;;;;;;;2100793;28;1237;-84
2021/10/11 06:49:23;;;;;;;;;;;;;;;;;;2101969;28;1983;-84
2021/10/11 06:50:25;;;;;;;;;;;;;;;;;;2114448;28;1897;-84
2021/10/11 06:51:27;;;;;;;;;;;;;;;;;;2108005;28;1309;-84
2021/10/11 06:52:27;;;;;;;;;;;;;;;;;;2106812;28;2081;-84
2021/10/11 06:53:29;;;;;;;;;;;;;;;;;;2107910;28;1300;-84
2021/10/11 06:54:32;;;;;;;;;;;;;;;;;;2107074;28;1277;-84
2021/10/11 06:55:34;;;;;;;;;;;;;;;;;;2107253;28;1795;-84
2021/10/11 06:56:36;;;;;;;;;;;;;;;;;;2114421;28;1444;-84
2021/10/11 06:57:37;;;;;;;;;;;;;;;;;;2114344;28;2171;-84
2021/10/11 06:58:39;;;;;;;;;;;;;;;;;;2104469;28;1427;-84
2021/10/11 06:59:42;;;;;;;;;;;;;;;;;;2102156;28;1323;-84
2021/10/11 07:00:43;;;;;;;;;;;;;;;;;;2115392;28;1874;-84
2021/10/11 07:01:45;;;;;;;;;;;;;;;;;;2115670;28;1526;-84
2021/10/11 07:02:45;;;;;;;;;;;;;;;;;;2107009;28;1340;-84
2021/10/11 07:03:48;;;;;;;;;;;;;;;;;;2107760;28;1276;-84
2021/10/11 07:04:56;;;;;;;;;;;;;;;;;;2103988;28;1328;-84
2021/10/11 07:06:02;;;;;;;;;;;;;;;;;;2102851;28;1696;-84
2021/10/11 07:07:03;;;;;;;;;;;;;;;;;;2107628;28;1395;-85
2021/10/11 07:08:10;;;;;;;;;;;;;;;;;;2107580;28;1383;-82